Time;durP1;ratioP1;P1;durP2;ratioP2;P2;SDS_P1;SDS_P2;PMS_P1;PMS_P2;Temp;Humidity;BMP_temperature;BMP_pressure;BME280_temperature;BME280_humidity;BME280_pressure;Samples;Min_cycle;Max_cycle;Signal;HPM_P1;HPM_P2
2021/07/01 00:00:30;;;;;;;14.25;8.68;;;13.70;99.90;;;;;;5077041;28;20037;-86
2021/07/01 00:02:55;;;;;;;18.05;11.15;;;13.60;99.90;;;;;;5071391;28;20031;-85
2021/07/01 00:05:21;;;;;;;19.33;10.40;;;13.70;99.90;;;;;;5074125;28;20029;-89
2021/07/01 00:07:48;;;;;;;20.77;11.25;;;13.70;99.90;;;;;;5074249;28;20159;-88
2021/07/01 00:10:20;;;;;;;17.60;10.55;;;13.70;99.90;;;;;;5077203;28;20034;-88
2021/07/01 00:12:46;;;;;;;12.48;8.73;;;13.70;99.90;;;;;;5057392;28;20028;-86
2021/07/01 00:15:14;;;;;;;13.48;8.43;;;13.70;99.90;;;;;;5092094;28;20031;-89
2021/07/01 00:17:42;;;;;;;17.17;10.00;;;13.70;99.90;;;;;;5073720;28;20024;-89
2021/07/01 00:20:09;;;;;;;19.20;10.25;;;13.70;99.90;;;;;;5073944;28;20037;-88
2021/07/01 00:22:35;;;;;;;19.85;11.10;;;13.60;99.90;;;;;;5073988;28;20067;-88
2021/07/01 00:25:01;;;;;;;20.02;11.48;;;13.60;99.90;;;;;;5057463;28;20031;-87
2021/07/01 00:27:28;;;;;;;17.02;10.70;;;13.60;99.90;;;;;;5062846;28;20024;-88
2021/07/01 00:29:55;;;;;;;19.15;12.65;;;13.70;99.90;;;;;;5076870;28;20048;-88
2021/07/01 00:32:21;;;;;;;18.05;11.88;;;13.70;99.90;;;;;;5057073;28;20024;-87
2021/07/01 00:34:47;;;;;;;23.60;13.38;;;13.70;99.90;;;;;;5071130;28;20138;-89
2021/07/01 00:37:13;;;;;;;22.13;12.40;;;13.70;99.90;;;;;;5061232;28;20042;-87
2021/07/01 00:39:38;;;;;;;23.75;13.23;;;13.70;99.90;;;;;;5058408;28;20079;-89
2021/07/01 00:42:04;;;;;;;25.48;12.75;;;13.60;99.90;;;;;;5054133;28;20048;-90
2021/07/01 00:44:30;;;;;;;21.90;12.60;;;13.60;99.90;;;;;;5073551;28;20055;-88
2021/07/01 00:46:56;;;;;;;21.17;11.90;;;13.60;99.90;;;;;;5097101;28;20020;-87
2021/07/01 00:49:23;;;;;;;19.85;11.43;;;13.60;99.90;;;;;;5076519;28;20036;-90
2021/07/01 00:51:49;;;;;;;18.33;11.63;;;13.60;99.90;;;;;;5059430;28;20031;-88
2021/07/01 00:54:16;;;;;;;20.17;12.07;;;13.60;99.90;;;;;;5059539;28;20509;-85
2021/07/01 00:56:42;;;;;;;20.80;11.43;;;13.60;99.90;;;;;;5073141;28;20024;-85
2021/07/01 00:59:08;;;;;;;20.40;11.80;;;13.60;99.90;;;;;;5055846;28;20016;-85
2021/07/01 01:01:35;;;;;;;22.70;11.77;;;13.50;99.90;;;;;;5061843;28;20040;-86
2021/07/01 01:04:02;;;;;;;23.38;12.60;;;13.60;99.90;;;;;;5072977;28;20020;-89
2021/07/01 01:06:28;;;;;;;17.17;10.35;;;13.50;99.90;;;;;;5060066;28;20020;-88
2021/07/01 01:08:55;;;;;;;18.77;10.15;;;13.50;99.90;;;;;;5068858;28;20396;-85
2021/07/01 01:11:24;;;;;;;16.40;9.25;;;13.50;99.90;;;;;;5058886;28;20043;-82
2021/07/01 01:14:04;;;;;;;23.70;10.50;;;13.50;99.90;;;;;;5058223;28;20047;-85
2021/07/01 01:16:32;;;;;;;18.08;10.35;;;13.50;99.90;;;;;;5090572;28;20036;-88
2021/07/01 01:18:58;;;;;;;23.42;12.05;;;13.50;99.90;;;;;;5058588;28;20491;-85
2021/07/01 01:21:26;;;;;;;21.48;12.05;;;13.40;99.90;;;;;;5067210;28;20036;-87
2021/07/01 01:23:54;;;;;;;23.17;11.63;;;13.50;99.90;;;;;;5055736;28;20024;-88
2021/07/01 01:26:20;;;;;;;22.48;11.43;;;13.50;99.90;;;;;;5059051;28;20052;-85
2021/07/01 01:28:48;;;;;;;26.27;12.07;;;13.50;99.90;;;;;;5066857;28;20025;-87
2021/07/01 01:31:14;;;;;;;18.25;11.52;;;13.50;99.90;;;;;;5069455;28;20040;-88
2021/07/01 01:33:41;;;;;;;22.40;12.95;;;13.50;99.90;;;;;;5072487;28;20021;-84
2021/07/01 01:36:07;;;;;;;20.25;11.63;;;13.50;99.90;;;;;;5073711;28;20035;-87
2021/07/01 01:38:34;;;;;;;20.75;11.80;;;13.50;99.90;;;;;;5057372;28;20040;-84
2021/07/01 01:41:24;;;;;;;15.70;9.82;;;13.50;99.90;;;;;;5094202;28;20082;-85
2021/07/01 01:43:50;;;;;;;22.83;13.95;;;13.50;99.90;;;;;;5073158;28;20044;-86
2021/07/01 01:46:37;;;;;;;21.50;12.52;;;13.50;99.90;;;;;;5057948;28;20052;-85
2021/07/01 01:49:05;;;;;;;23.75;13.13;;;13.50;99.90;;;;;;5029877;28;20056;-86
2021/07/01 01:51:35;;;;;;;22.65;12.35;;;13.50;99.90;;;;;;5014225;28;20038;-85
2021/07/01 01:54:01;;;;;;;21.98;11.30;;;13.50;99.90;;;;;;5030449;28;20046;-86
2021/07/01 01:56:36;;;;;;;22.85;11.20;;;13.50;99.90;;;;;;5008924;28;20036;-88
2021/07/01 01:59:04;;;;;;;21.67;11.73;;;13.50;99.90;;;;;;5035415;28;20041;-89
2021/07/01 02:01:58;;;;;;;15.63;8.70;;;13.50;99.90;;;;;;5030741;28;20180;-88
2021/07/01 02:04:38;;;;;;;17.67;9.35;;;13.50;99.90;;;;;;4997794;28;20076;-87
2021/07/01 02:07:04;;;;;;;16.60;8.65;;;13.40;99.90;;;;;;5013606;28;20525;-87
2021/07/01 02:09:49;;;;;;;20.27;10.07;;;13.50;99.90;;;;;;5029802;28;20065;-87
2021/07/01 02:12:14;;;;;;;21.13;10.52;;;13.50;99.90;;;;;;5000365;28;20026;-89
2021/07/01 02:14:40;;;;;;;14.63;8.88;;;13.50;99.90;;;;;;5016021;28;20507;-87
2021/07/01 02:17:14;;;;;;;19.67;8.48;;;13.50;99.90;;;;;;5006849;28;20022;-87
2021/07/01 02:19:39;;;;;;;18.70;9.15;;;13.50;99.90;;;;;;5013928;28;20033;-87
2021/07/01 02:22:05;;;;;;;21.35;10.23;;;13.50;99.90;;;;;;5015096;28;20048;-88
2021/07/01 02:24:36;;;;;;;14.70;8.38;;;13.50;99.90;;;;;;5011954;28;20026;-88
2021/07/01 02:27:03;;;;;;;17.42;9.02;;;13.50;99.90;;;;;;5066202;28;20036;-87
2021/07/01 02:29:28;;;;;;;20.02;9.25;;;13.50;99.90;;;;;;5066831;28;20051;-87
2021/07/01 02:32:07;;;;;;;18.95;8.95;;;13.40;99.90;;;;;;5075123;28;20045;-82
2021/07/01 02:34:40;;;;;;;15.63;8.25;;;13.40;99.90;;;;;;5071809;28;20020;-84
2021/07/01 02:37:25;;;;;;;17.75;7.60;;;13.40;99.90;;;;;;5086467;28;20090;-82
2021/07/01 02:40:05;;;;;;;13.10;7.65;;;13.30;99.90;;;;;;5072920;28;20033;-83
2021/07/01 02:42:42;;;;;;;12.77;6.53;;;13.30;99.90;;;;;;5069504;28;20028;-86
2021/07/01 02:45:10;;;;;;;11.13;5.97;;;13.30;99.90;;;;;;5068081;28;20048;-87
2021/07/01 02:47:58;;;;;;;15.93;7.47;;;13.30;99.90;;;;;;5084201;28;20096;-85
2021/07/01 02:50:26;;;;;;;19.08;8.25;;;13.30;99.90;;;;;;5070142;28;20024;-88
2021/07/01 02:52:51;;;;;;;13.88;8.35;;;13.20;99.90;;;;;;5091977;28;20457;-87
2021/07/01 02:55:18;;;;;;;16.60;6.80;;;13.30;99.90;;;;;;5052732;28;20495;-85
2021/07/01 02:57:45;;;;;;;14.45;6.75;;;13.20;99.90;;;;;;5054621;28;20033;-87
2021/07/01 03:00:13;;;;;;;14.70;6.53;;;13.30;99.90;;;;;;5049144;28;20024;-86
2021/07/01 03:02:43;;;;;;;13.85;6.85;;;13.30;99.90;;;;;;5054669;28;20100;-87
2021/07/01 03:05:28;;;;;;;12.25;7.47;;;13.20;99.90;;;;;;5075016;28;20029;-88
2021/07/01 03:07:54;;;;;;;7.97;4.88;;;13.20;99.90;;;;;;5072546;28;20163;-87
2021/07/01 03:10:22;;;;;;;13.63;5.85;;;13.20;99.90;;;;;;5071987;28;20020;-87
2021/07/01 03:13:01;;;;;;;10.50;6.00;;;13.20;99.90;;;;;;5071610;28;20051;-87
2021/07/01 03:15:28;;;;;;;13.43;6.15;;;13.20;99.90;;;;;;5068832;28;20027;-86
2021/07/01 03:17:54;;;;;;;10.68;6.25;;;13.20;99.90;;;;;;5076488;28;20048;-87
2021/07/01 03:20:29;;;;;;;13.60;6.65;;;13.20;99.90;;;;;;5071116;28;20028;-88
2021/07/01 03:23:14;;;;;;;12.18;5.38;;;13.20;99.90;;;;;;5070248;28;20028;-87
2021/07/01 03:25:40;;;;;;;12.80;5.28;;;13.20;99.90;;;;;;5051259;28;20040;-87
2021/07/01 03:28:08;;;;;;;10.52;5.68;;;13.20;99.90;;;;;;5067695;28;20062;-86
2021/07/01 03:30:34;;;;;;;12.07;5.90;;;13.20;99.90;;;;;;5070285;28;20488;-87
2021/07/01 03:33:01;;;;;;;10.32;6.63;;;13.20;99.90;;;;;;5073392;28;20020;-87
2021/07/01 03:35:27;;;;;;;12.90;6.90;;;13.20;99.90;;;;;;5070545;28;20031;-86
2021/07/01 03:38:11;;;;;;;15.63;7.57;;;13.10;99.90;;;;;;5077078;28;20024;-86
2021/07/01 03:41:01;;;;;;;13.40;6.35;;;13.10;99.90;;;;;;5057348;28;20032;-86
2021/07/01 03:43:27;;;;;;;13.77;6.82;;;13.20;99.90;;;;;;5070495;28;20043;-87
2021/07/01 03:45:58;;;;;;;18.13;7.00;;;13.10;99.90;;;;;;5056782;28;20444;-86
2021/07/01 03:48:24;;;;;;;15.88;6.88;;;13.10;99.90;;;;;;5070247;28;20103;-86
2021/07/01 03:51:10;;;;;;;15.75;6.95;;;13.10;99.90;;;;;;5085438;28;20038;-86
2021/07/01 03:53:44;;;;;;;14.07;7.20;;;13.10;99.90;;;;;;5067542;28;20032;-83
2021/07/01 03:56:11;;;;;;;18.33;7.22;;;13.10;99.90;;;;;;5057642;28;20031;-85
2021/07/01 03:58:37;;;;;;;16.48;6.28;;;13.00;99.90;;;;;;5089363;28;20040;-86
2021/07/01 04:01:23;;;;;;;19.60;6.63;;;13.00;99.90;;;;;;5065561;28;20036;-84
2021/07/01 04:03:49;;;;;;;18.23;6.03;;;13.00;99.90;;;;;;5053435;28;20115;-84
2021/07/01 04:06:17;;;;;;;13.68;5.95;;;13.10;99.90;;;;;;5066904;28;20063;-84
2021/07/01 04:08:42;;;;;;;15.27;6.38;;;13.10;99.90;;;;;;5066660;28;20016;-86
2021/07/01 04:11:10;;;;;;;23.40;6.32;;;13.00;99.90;;;;;;5063505;28;20048;-82
2021/07/01 04:13:36;;;;;;;16.33;5.78;;;13.10;99.90;;;;;;5066577;28;20021;-84
2021/07/01 04:16:20;;;;;;;14.10;5.90;;;13.10;99.90;;;;;;5055037;28;20060;-91
2021/07/01 04:19:05;;;;;;;14.55;6.63;;;13.10;99.90;;;;;;5076261;28;20207;-88
2021/07/01 04:21:49;;;;;;;17.92;6.30;;;13.10;99.90;;;;;;5072207;28;20042;-84
2021/07/01 04:24:33;;;;;;;17.95;6.28;;;13.10;99.90;;;;;;5092030;28;20136;-85
2021/07/01 04:27:25;;;;;;;13.77;6.15;;;13.10;99.90;;;;;;5074520;28;20037;-88
2021/07/01 04:29:51;;;;;;;18.17;7.07;;;13.20;99.90;;;;;;5074517;28;21984;-88
2021/07/01 04:32:18;;;;;;;16.42;7.50;;;13.10;99.90;;;;;;5072081;28;20088;-86
2021/07/01 04:34:45;;;;;;;15.50;5.85;;;13.20;99.90;;;;;;5056885;28;20024;-87
2021/07/01 04:37:11;;;;;;;16.25;6.82;;;13.20;99.90;;;;;;5057944;28;20027;-85
2021/07/01 04:39:46;;;;;;;13.82;5.85;;;13.20;99.90;;;;;;5067686;28;20025;-82
2021/07/01 04:42:16;;;;;;;14.48;5.57;;;13.20;99.90;;;;;;5056269;28;20046;-82
2021/07/01 04:44:41;;;;;;;16.05;7.00;;;13.30;99.90;;;;;;5071964;28;20071;-84
2021/07/01 04:47:08;;;;;;;23.20;8.65;;;13.20;99.90;;;;;;5077258;28;20066;-82
2021/07/01 04:49:33;;;;;;;23.10;8.57;;;13.20;99.90;;;;;;5066649;28;20024;-82
2021/07/01 04:52:34;;;;;;;19.00;7.80;;;13.30;99.90;;;;;;5025151;28;20049;-87
2021/07/01 04:55:18;;;;;;;15.10;6.65;;;13.30;99.90;;;;;;5083988;28;20077;-88
2021/07/01 04:58:03;;;;;;;25.65;9.07;;;13.20;99.90;;;;;;5090353;28;20095;-86
2021/07/01 05:00:29;;;;;;;14.93;7.60;;;13.20;99.90;;;;;;5075267;28;20028;-86
2021/07/01 05:03:13;;;;;;;20.13;8.48;;;13.20;99.90;;;;;;5080506;28;20043;-87
2021/07/01 05:05:39;;;;;;;22.40;8.30;;;13.20;99.90;;;;;;5067620;28;20028;-89
2021/07/01 05:08:06;;;;;;;15.40;7.10;;;13.20;99.90;;;;;;5055771;28;20032;-87
2021/07/01 05:10:33;;;;;;;16.63;8.00;;;13.20;99.90;;;;;;5072263;28;20023;-85
2021/07/01 05:13:03;;;;;;;17.05;7.75;;;13.20;99.90;;;;;;5067648;28;20030;-88
2021/07/01 05:15:28;;;;;;;12.90;6.57;;;13.20;99.90;;;;;;5074689;28;20096;-85
2021/07/01 05:18:03;;;;;;;15.13;7.13;;;13.10;99.90;;;;;;5035187;28;20458;-89
2021/07/01 05:20:30;;;;;;;14.30;7.60;;;13.10;99.90;;;;;;5055212;28;20511;-88
2021/07/01 05:23:30;;;;;;;20.23;7.82;;;13.00;99.90;;;;;;5081357;28;20035;-90
2021/07/01 05:26:15;;;;;;;15.73;7.30;;;13.00;99.90;;;;;;5077629;28;20179;-89
2021/07/01 05:28:59;;;;;;;15.88;6.85;;;13.00;99.90;;;;;;5079303;28;20076;-86
2021/07/01 05:32:04;;;;;;;18.65;7.75;;;13.00;99.90;;;;;;5077524;28;20114;-87
2021/07/01 05:34:49;;;;;;;20.23;8.77;;;13.00;99.90;;;;;;5076230;28;20092;-88
2021/07/01 05:37:15;;;;;;;18.73;8.05;;;13.00;99.90;;;;;;5055566;28;20037;-85
2021/07/01 05:39:47;;;;;;;16.40;8.18;;;13.00;99.90;;;;;;5074904;28;20020;-87
2021/07/01 05:42:13;;;;;;;21.17;7.63;;;13.00;99.90;;;;;;5057885;28;20062;-84
2021/07/01 05:44:38;;;;;;;24.70;8.23;;;13.00;99.90;;;;;;5070619;28;20040;-81
2021/07/01 05:47:05;;;;;;;19.10;8.60;;;13.00;99.90;;;;;;5057347;28;20032;-84
2021/07/01 05:49:31;;;;;;;17.38;7.18;;;13.00;99.90;;;;;;5084394;28;20025;-85
2021/07/01 05:52:00;;;;;;;19.52;8.30;;;13.00;99.90;;;;;;5047284;28;20028;-83
2021/07/01 05:54:32;;;;;;;18.67;7.53;;;13.00;99.90;;;;;;5069054;28;20115;-87
2021/07/01 05:56:58;;;;;;;18.20;7.05;;;13.00;99.90;;;;;;5056696;28;20044;-88
2021/07/01 05:59:24;;;;;;;20.85;7.90;;;13.00;99.90;;;;;;5074918;28;20194;-87
2021/07/01 06:01:50;;;;;;;16.92;6.78;;;13.00;99.90;;;;;;5049253;28;20104;-87
2021/07/01 06:04:17;;;;;;;13.63;7.32;;;13.10;99.90;;;;;;5076619;28;20063;-87
2021/07/01 06:07:14;;;;;;;17.58;7.13;;;13.00;99.90;;;;;;5077777;28;20063;-88
2021/07/01 06:09:42;;;;;;;20.17;7.70;;;13.10;99.90;;;;;;5076643;28;20020;-84
2021/07/01 06:12:07;;;;;;;21.35;7.32;;;13.10;99.90;;;;;;5073966;28;20021;-87
2021/07/01 06:14:33;;;;;;;15.38;7.25;;;13.20;99.90;;;;;;5076647;28;20024;-83
2021/07/01 06:17:00;;;;;;;14.77;6.65;;;13.20;99.90;;;;;;5051522;28;20021;-88
2021/07/01 06:19:25;;;;;;;16.38;6.95;;;13.10;99.90;;;;;;5073825;28;20043;-84
2021/07/01 06:21:51;;;;;;;16.23;6.95;;;13.10;99.90;;;;;;5074023;28;21305;-87
2021/07/01 06:24:18;;;;;;;19.70;7.88;;;13.10;99.90;;;;;;5057584;28;20030;-86
2021/07/01 06:26:47;;;;;;;14.68;6.38;;;13.10;99.90;;;;;;5074317;28;20206;-87
2021/07/01 06:29:13;;;;;;;21.77;7.50;;;13.20;99.90;;;;;;5078212;28;20020;-84
2021/07/01 06:31:40;;;;;;;18.38;7.25;;;13.20;99.90;;;;;;5067988;28;20032;-88
2021/07/01 06:34:07;;;;;;;14.82;6.93;;;13.20;99.90;;;;;;5069137;28;20056;-89
2021/07/01 06:36:40;;;;;;;14.30;7.47;;;13.20;99.90;;;;;;5052663;28;20021;-89
2021/07/01 06:39:25;;;;;;;13.40;6.32;;;13.20;99.90;;;;;;5078743;28;20089;-89
2021/07/01 06:42:10;;;;;;;17.90;7.65;;;13.20;99.90;;;;;;5070349;28;20123;-89
2021/07/01 06:44:56;;;;;;;19.13;6.75;;;13.20;99.90;;;;;;5070390;28;20113;-88
2021/07/01 06:47:45;;;;;;;13.38;6.15;;;13.20;99.90;;;;;;5072582;28;20496;-89
2021/07/01 06:50:30;;;;;;;16.20;6.53;;;13.20;99.90;;;;;;5088322;28;20043;-86
2021/07/01 06:53:15;;;;;;;12.55;5.97;;;13.30;99.90;;;;;;5079214;28;20047;-87
2021/07/01 06:56:01;;;;;;;12.88;5.65;;;13.20;99.90;;;;;;5063435;28;20028;-89
2021/07/01 06:58:44;;;;;;;17.80;7.63;;;13.30;99.90;;;;;;5072502;28;20115;-89
2021/07/01 07:01:11;;;;;;;16.98;7.68;;;13.30;99.90;;;;;;5072754;28;20037;-87
2021/07/01 07:03:37;;;;;;;17.83;7.85;;;13.30;99.90;;;;;;5056615;28;20044;-86
2021/07/01 07:06:03;;;;;;;15.93;7.25;;;13.30;99.90;;;;;;5076086;28;20028;-91
2021/07/01 07:08:30;;;;;;;19.45;8.82;;;13.40;99.90;;;;;;5056426;28;20036;-89
2021/07/01 07:10:58;;;;;;;13.30;7.38;;;13.40;99.90;;;;;;5070022;28;20043;-88
2021/07/01 07:13:25;;;;;;;19.77;8.75;;;13.40;99.90;;;;;;5071296;28;20032;-87
2021/07/01 07:15:52;;;;;;;15.23;7.75;;;13.50;99.90;;;;;;5074755;28;20024;-87
2021/07/01 07:18:27;;;;;;;19.10;7.82;;;13.50;99.90;;;;;;5067159;28;20107;-88
2021/07/01 07:21:07;;;;;;;17.02;8.05;;;13.50;99.90;;;;;;5085182;28;20091;-87
2021/07/01 07:23:35;;;;;;;18.50;7.93;;;13.50;99.90;;;;;;5070818;28;20023;-88
2021/07/01 07:26:07;;;;;;;16.92;8.02;;;13.50;99.90;;;;;;5069786;28;20457;-88
2021/07/01 07:28:36;;;;;;;14.50;7.85;;;13.50;99.90;;;;;;5073631;28;20602;-87
2021/07/01 07:31:04;;;;;;;21.63;9.55;;;13.50;99.90;;;;;;5054768;28;20058;-89
2021/07/01 07:33:30;;;;;;;19.50;9.85;;;13.50;99.90;;;;;;5074765;28;20029;-87
2021/07/01 07:35:56;;;;;;;21.48;8.52;;;13.50;99.90;;;;;;5056655;28;20028;-87
2021/07/01 07:38:25;;;;;;;19.25;9.52;;;13.60;99.90;;;;;;5058059;28;20035;-88
2021/07/01 07:40:53;;;;;;;24.00;9.97;;;13.60;99.90;;;;;;5072577;28;20051;-88
2021/07/01 07:43:19;;;;;;;20.27;9.20;;;13.70;99.90;;;;;;5056097;28;20274;-88
2021/07/01 07:45:50;;;;;;;22.13;8.90;;;13.70;99.90;;;;;;5066902;28;20049;-88
2021/07/01 07:48:16;;;;;;;25.92;10.07;;;13.60;99.90;;;;;;5057182;28;20108;-86
2021/07/01 07:50:48;;;;;;;20.00;8.70;;;13.70;99.90;;;;;;5069544;28;20025;-87
2021/07/01 07:53:20;;;;;;;17.15;8.27;;;13.70;99.90;;;;;;5069629;28;20056;-86
2021/07/01 07:55:48;;;;;;;19.63;9.68;;;13.80;99.90;;;;;;5071798;28;20032;-89
2021/07/01 07:58:15;;;;;;;18.80;8.75;;;13.70;99.90;;;;;;5057646;28;20028;-88
2021/07/01 08:00:43;;;;;;;20.13;9.52;;;13.60;99.90;;;;;;5074910;28;20037;-88
2021/07/01 08:03:10;;;;;;;20.73;9.55;;;13.60;99.90;;;;;;5063901;28;20032;-87
2021/07/01 08:05:38;;;;;;;18.70;9.13;;;13.60;99.90;;;;;;5090310;28;20025;-87
2021/07/01 08:08:05;;;;;;;19.65;8.43;;;13.60;99.90;;;;;;5072307;28;20029;-88
2021/07/01 08:10:32;;;;;;;16.70;8.25;;;13.60;99.90;;;;;;5054442;28;20556;-86
2021/07/01 08:13:07;;;;;;;22.67;9.38;;;13.70;99.90;;;;;;5097310;28;20035;-89
2021/07/01 08:15:36;;;;;;;23.58;8.77;;;13.70;99.90;;;;;;5073228;28;20032;-88
2021/07/01 08:18:04;;;;;;;16.90;8.35;;;13.70;99.90;;;;;;5073376;28;20036;-90
2021/07/01 08:20:30;;;;;;;20.40;8.38;;;13.70;99.90;;;;;;5073327;28;20052;-88
2021/07/01 08:22:57;;;;;;;15.82;7.78;;;13.70;99.90;;;;;;5076723;28;20085;-89
2021/07/01 08:25:25;;;;;;;16.63;8.05;;;13.70;99.90;;;;;;5076247;28;20025;-89
2021/07/01 08:27:53;;;;;;;16.33;6.70;;;13.70;99.90;;;;;;5058855;28;20036;-89
2021/07/01 08:30:22;;;;;;;16.02;7.18;;;13.80;99.90;;;;;;5068668;28;20044;-89
2021/07/01 08:32:53;;;;;;;14.88;7.65;;;13.80;99.90;;;;;;5057393;28;20031;-87
2021/07/01 08:35:22;;;;;;;17.60;8.18;;;13.90;99.90;;;;;;5070328;28;20020;-88
2021/07/01 08:37:50;;;;;;;19.85;9.45;;;13.90;99.90;;;;;;5090309;28;20354;-86
2021/07/01 08:40:18;;;;;;;17.77;7.85;;;13.90;99.90;;;;;;5064028;28;20032;-87
2021/07/01 08:42:44;;;;;;;15.75;8.15;;;14.00;99.90;;;;;;5075871;28;20047;-88
2021/07/01 08:45:14;;;;;;;20.08;9.13;;;14.00;99.90;;;;;;5074325;28;20045;-88
2021/07/01 08:47:43;;;;;;;24.60;9.23;;;13.90;99.90;;;;;;5061767;28;20033;-88
2021/07/01 08:50:15;;;;;;;23.25;10.95;;;14.00;99.90;;;;;;5059329;28;20046;-89
2021/07/01 08:53:12;;;;;;;21.45;10.25;;;13.90;99.90;;;;;;5076695;28;20454;-88
2021/07/01 08:55:40;;;;;;;23.58;10.23;;;13.90;99.90;;;;;;5075757;28;20051;-89
2021/07/01 08:58:09;;;;;;;22.38;10.68;;;13.90;99.90;;;;;;5056184;28;20123;-86
2021/07/01 09:00:40;;;;;;;18.58;8.95;;;14.00;99.90;;;;;;5075627;28;20534;-88
2021/07/01 09:03:08;;;;;;;17.38;9.02;;;14.00;99.90;;;;;;5063161;28;20032;-87
2021/07/01 09:05:36;;;;;;;17.92;9.63;;;14.00;99.90;;;;;;5060209;28;20025;-89
2021/07/01 09:08:09;;;;;;;16.98;9.55;;;14.00;99.90;;;;;;5075329;28;20074;-89
2021/07/01 09:10:35;;;;;;;18.88;9.32;;;14.00;99.90;;;;;;5060432;28;20024;-89
2021/07/01 09:13:03;;;;;;;26.15;10.23;;;14.00;99.90;;;;;;5059335;28;20046;-89
2021/07/01 09:15:31;;;;;;;19.88;9.55;;;14.00;99.90;;;;;;5056994;28;20119;-88
2021/07/01 09:17:58;;;;;;;16.58;8.23;;;14.10;99.90;;;;;;5062646;28;20244;-90
2021/07/01 09:20:33;;;;;;;14.38;7.70;;;14.10;99.90;;;;;;5060743;28;20043;-88
2021/07/01 09:22:59;;;;;;;20.98;8.25;;;14.20;99.90;;;;;;5072695;28;20097;-91
2021/07/01 09:25:25;;;;;;;18.25;7.75;;;14.00;99.90;;;;;;5061522;28;20028;-90
2021/07/01 09:27:53;;;;;;;21.67;8.45;;;14.10;99.90;;;;;;5060711;28;20045;-88
2021/07/01 09:30:25;;;;;;;14.57;6.60;;;14.10;99.90;;;;;;5076103;28;20036;-89
2021/07/01 09:32:55;;;;;;;20.40;7.13;;;14.10;99.90;;;;;;5074976;28;20026;-90
2021/07/01 09:35:22;;;;;;;19.38;7.97;;;14.10;99.90;;;;;;5075100;28;20033;-92
2021/07/01 09:37:48;;;;;;;23.45;8.60;;;14.10;99.90;;;;;;5060987;28;20123;-90
2021/07/01 09:40:16;;;;;;;15.98;7.90;;;14.10;99.90;;;;;;5074789;28;20020;-90
2021/07/01 09:42:42;;;;;;;25.70;9.93;;;14.10;99.90;;;;;;5077856;28;20104;-94
2021/07/01 09:45:13;;;;;;;27.02;10.55;;;14.10;99.90;;;;;;5058981;28;20040;-91
2021/07/01 09:47:46;;;;;;;23.10;10.00;;;14.10;99.90;;;;;;5071809;28;20029;-92
2021/07/01 09:50:12;;;;;;;22.80;10.00;;;14.20;99.90;;;;;;5072367;28;20025;-93
2021/07/01 09:52:44;;;;;;;29.45;12.52;;;14.20;99.90;;;;;;5066989;28;20032;-91
2021/07/01 09:55:11;;;;;;;26.48;12.10;;;14.10;99.90;;;;;;5058117;28;20052;-91
2021/07/01 09:57:44;;;;;;;28.50;11.55;;;14.10;99.90;;;;;;5074736;28;20028;-91
2021/07/01 10:00:14;;;;;;;23.90;10.57;;;14.10;99.90;;;;;;5068825;28;20031;-91
2021/07/01 10:02:43;;;;;;;30.88;12.68;;;14.20;99.90;;;;;;5076014;28;20090;-90
2021/07/01 10:05:25;;;;;;;32.15;13.07;;;14.20;99.90;;;;;;5075504;28;20024;-91
2021/07/01 10:07:50;;;;;;;34.70;13.27;;;14.20;99.90;;;;;;5050475;28;20029;-92
2021/07/01 10:10:17;;;;;;;34.40;12.57;;;14.20;99.90;;;;;;5052911;28;20100;-91
2021/07/01 10:12:51;;;;;;;34.33;13.07;;;14.20;99.90;;;;;;5059636;28;20088;-91
2021/07/01 10:15:30;;;;;;;28.48;12.32;;;14.20;99.90;;;;;;5074158;28;20029;-90
2021/07/01 10:18:29;;;;;;;30.23;11.90;;;14.20;99.90;;;;;;5074053;28;20036;-92
2021/07/01 10:20:57;;;;;;;27.38;11.38;;;14.30;99.90;;;;;;5063299;28;20055;-89
2021/07/01 10:23:29;;;;;;;24.40;11.20;;;14.30;99.90;;;;;;5057418;28;20028;-90
2021/07/01 10:25:58;;;;;;;24.13;9.93;;;14.20;99.90;;;;;;5073126;28;20031;-94
2021/07/01 10:28:25;;;;;;;23.80;11.02;;;14.20;99.90;;;;;;5057497;28;20033;-88
2021/07/01 10:31:01;;;;;;;26.17;10.35;;;14.20;99.90;;;;;;5071584;28;20036;-89
2021/07/01 10:33:33;;;;;;;29.45;10.65;;;14.20;99.90;;;;;;5056174;28;20024;-89
2021/07/01 10:36:02;;;;;;;27.88;10.13;;;14.20;99.90;;;;;;5069028;28;20052;-91
2021/07/01 10:38:45;;;;;;;25.58;11.13;;;14.20;99.90;;;;;;5057298;28;20391;-90
2021/07/01 10:41:24;;;;;;;23.30;9.80;;;14.20;99.90;;;;;;5074009;28;20036;-91
2021/07/01 10:43:50;;;;;;;23.13;11.33;;;14.30;99.90;;;;;;5057422;28;20030;-92
2021/07/01 10:49:12;;;;;;;24.95;11.18;;;14.30;99.90;;;;;;5076210;23;20041;-91
2021/07/01 10:51:53;;;;;;;27.05;11.63;;;14.30;99.90;;;;;;5059330;28;20027;-91
2021/07/01 10:54:19;;;;;;;27.42;11.80;;;14.30;99.90;;;;;;3488129;22;20224;-86
2021/07/01 10:56:47;;;;;;;22.40;9.98;;;14.30;99.90;;;;;;5060642;28;20048;-88
2021/07/01 10:59:13;;;;;;;26.08;12.05;;;14.40;99.90;;;;;;5067890;28;20025;-88
2021/07/01 11:01:43;;;;;;;27.33;12.25;;;14.40;99.90;;;;;;5051210;28;20046;-90
2021/07/01 11:04:17;;;;;;;26.42;10.82;;;14.40;99.90;;;;;;5084508;28;20020;-90
2021/07/01 11:06:58;;;;;;;31.30;11.93;;;14.50;99.90;;;;;;5064969;28;20202;-91
2021/07/01 11:09:48;;;;;;;26.83;11.93;;;14.50;99.90;;;;;;5052171;28;20024;-87
2021/07/01 11:12:14;;;;;;;23.88;10.93;;;14.50;99.90;;;;;;5045610;28;20554;-89
2021/07/01 11:14:45;;;;;;;24.23;11.40;;;14.60;99.90;;;;;;5050675;28;20029;-89
2021/07/01 11:17:11;;;;;;;23.40;10.65;;;14.60;99.90;;;;;;5046814;28;20024;-88
2021/07/01 11:19:45;;;;;;;24.60;9.85;;;14.50;99.90;;;;;;5048864;28;20392;-88
2021/07/01 11:22:14;;;;;;;20.90;9.93;;;14.60;99.90;;;;;;5064363;28;20041;-89
2021/07/01 11:24:42;;;;;;;22.92;10.23;;;14.70;99.90;;;;;;5049881;28;20051;-89
2021/07/01 11:27:09;;;;;;;25.55;11.65;;;14.70;99.90;;;;;;5061633;28;20036;-91
2021/07/01 11:29:42;;;;;;;28.95;11.70;;;14.70;99.90;;;;;;5067178;28;20054;-87
2021/07/01 11:32:25;;;;;;;24.23;10.57;;;14.70;99.90;;;;;;5053444;28;20028;-87
2021/07/01 11:34:53;;;;;;;24.45;11.57;;;14.80;99.90;;;;;;5067187;28;20052;-89
2021/07/01 11:37:41;;;;;;;24.02;10.35;;;14.80;99.90;;;;;;5064025;28;20035;-88
2021/07/01 11:40:18;;;;;;;33.72;12.82;;;14.70;99.90;;;;;;5064090;28;20032;-88
2021/07/01 11:42:44;;;;;;;24.30;10.38;;;14.80;99.90;;;;;;5045616;28;20036;-91
2021/07/01 11:45:11;;;;;;;21.77;10.90;;;14.90;99.90;;;;;;5061058;28;20025;-88
2021/07/01 11:47:37;;;;;;;25.35;12.00;;;14.90;99.90;;;;;;5050200;28;20028;-88
2021/07/01 11:50:04;;;;;;;21.50;10.45;;;14.90;99.90;;;;;;5044312;28;20032;-89
2021/07/01 11:52:32;;;;;;;25.25;11.27;;;14.90;99.90;;;;;;5048861;28;20043;-90
2021/07/01 11:55:01;;;;;;;24.33;10.93;;;14.90;99.90;;;;;;5061268;28;20037;-88
2021/07/01 11:57:28;;;;;;;22.77;10.65;;;14.90;99.90;;;;;;5044382;28;20196;-88
2021/07/01 11:59:55;;;;;;;26.58;11.77;;;14.90;99.90;;;;;;5050067;28;20028;-85
2021/07/01 12:02:21;;;;;;;24.42;11.75;;;14.80;99.90;;;;;;5065727;28;20048;-89
2021/07/01 12:04:48;;;;;;;23.52;11.15;;;14.90;99.90;;;;;;5039794;28;20064;-89
2021/07/01 12:07:23;;;;;;;25.23;10.73;;;14.90;99.90;;;;;;5046955;28;20071;-84
2021/07/01 12:09:49;;;;;;;25.10;11.27;;;15.00;99.90;;;;;;5081357;28;20021;-87
2021/07/01 12:12:17;;;;;;;27.88;11.90;;;15.00;99.90;;;;;;5063626;28;20075;-87
2021/07/01 12:14:48;;;;;;;22.15;10.43;;;15.00;99.90;;;;;;5066308;28;20115;-88
2021/07/01 12:17:51;;;;;;;26.80;11.00;;;15.20;99.90;;;;;;5060574;28;20021;-91
2021/07/01 12:20:31;;;;;;;27.10;11.82;;;15.10;99.90;;;;;;5061387;28;20039;-87
2021/07/01 12:23:02;;;;;;;23.92;10.85;;;15.10;99.90;;;;;;5063555;28;20032;-88
2021/07/01 12:25:27;;;;;;;25.48;11.40;;;15.10;99.90;;;;;;5046708;28;20051;-87
2021/07/01 12:28:06;;;;;;;20.42;10.95;;;15.20;99.90;;;;;;5062163;28;20052;-88
2021/07/01 12:30:50;;;;;;;22.95;10.23;;;15.30;99.90;;;;;;5044141;28;20040;-88
2021/07/01 12:33:35;;;;;;;21.05;9.38;;;15.30;99.90;;;;;;5046936;28;20036;-89
2021/07/01 12:36:06;;;;;;;19.48;9.13;;;15.30;99.90;;;;;;5057647;28;20025;-88
2021/07/01 12:38:32;;;;;;;17.30;9.70;;;15.40;99.90;;;;;;5060461;28;20040;-88
2021/07/01 12:41:01;;;;;;;23.05;9.85;;;15.40;99.90;;;;;;5047619;28;20032;-84
2021/07/01 12:43:50;;;;;;;23.70;9.48;;;15.30;99.90;;;;;;5048333;28;20081;-86
2021/07/01 12:49:37;;;;;;;;;;;15.30;99.90;;;;;;4981675;28;20099;-88
2021/07/01 12:52:06;;;;;;;20.65;9.25;;;15.70;99.90;;;;;;4982230;28;20118;-88
2021/07/01 12:54:32;;;;;;;21.90;10.27;;;15.60;99.90;;;;;;4981573;28;20035;-86
2021/07/01 12:56:58;;;;;;;24.50;10.77;;;15.70;99.90;;;;;;4972531;28;20030;-86
2021/07/01 12:59:31;;;;;;;23.70;10.90;;;15.70;99.90;;;;;;4986130;28;20027;-87